sensor_id;sensor_type;location;lat;lon;timestamp;P1;durP1;ratioP1;P2;durP2;ratioP2
53650;SDS011;39552;45.776;15.892;2022-08-05T00:00:59;8.50;;;3.95;;
53650;SDS011;39552;45.776;15.892;2022-08-05T00:03:46;12.95;;;4.07;;
53650;SDS011;39552;45.776;15.892;2022-08-05T00:06:14;6.18;;;4.05;;
53650;SDS011;39552;45.776;15.892;2022-08-05T00:08:57;7.45;;;4.00;;
53650;SDS011;39552;45.776;15.892;2022-08-05T00:11:24;9.93;;;3.92;;
53650;SDS011;39552;45.776;15.892;2022-08-05T00:14:01;8.43;;;4.55;;
53650;SDS011;39552;45.776;15.892;2022-08-05T00:16:38;7.45;;;3.95;;
53650;SDS011;39552;45.776;15.892;2022-08-05T00:19:19;8.20;;;3.83;;
53650;SDS011;39552;45.776;15.892;2022-08-05T00:21:47;9.00;;;4.13;;
53650;SDS011;39552;45.776;15.892;2022-08-05T00:24:14;11.38;;;4.15;;
53650;SDS011;39552;45.776;15.892;2022-08-05T00:26:49;7.15;;;4.07;;
53650;SDS011;39552;45.776;15.892;2022-08-05T00:29:19;4.90;;;3.97;;
53650;SDS011;39552;45.776;15.892;2022-08-05T00:31:50;6.50;;;3.78;;
53650;SDS011;39552;45.776;15.892;2022-08-05T00:34:37;7.78;;;4.20;;
53650;SDS011;39552;45.776;15.892;2022-08-05T00:37:24;9.95;;;4.03;;
53650;SDS011;39552;45.776;15.892;2022-08-05T00:39:51;6.45;;;4.20;;
53650;SDS011;39552;45.776;15.892;2022-08-05T00:42:30;13.38;;;3.85;;
53650;SDS011;39552;45.776;15.892;2022-08-05T00:44:59;6.00;;;4.15;;
53650;SDS011;39552;45.776;15.892;2022-08-05T00:47:27;9.00;;;4.13;;
53650;SDS011;39552;45.776;15.892;2022-08-05T00:50:13;9.15;;;4.07;;
53650;SDS011;39552;45.776;15.892;2022-08-05T00:52:40;7.55;;;4.25;;
53650;SDS011;39552;45.776;15.892;2022-08-05T00:55:10;7.72;;;4.45;;
53650;SDS011;39552;45.776;15.892;2022-08-05T00:57:37;8.63;;;4.38;;
53650;SDS011;39552;45.776;15.892;2022-08-05T01:00:25;10.05;;;5.15;;
53650;SDS011;39552;45.776;15.892;2022-08-05T01:02:52;10.60;;;5.20;;
53650;SDS011;39552;45.776;15.892;2022-08-05T01:05:19;9.65;;;4.88;;
53650;SDS011;39552;45.776;15.892;2022-08-05T01:07:46;10.52;;;5.80;;
53650;SDS011;39552;45.776;15.892;2022-08-05T01:10:39;12.38;;;5.28;;
53650;SDS011;39552;45.776;15.892;2022-08-05T01:13:19;8.80;;;4.65;;
53650;SDS011;39552;45.776;15.892;2022-08-05T01:16:12;9.63;;;5.18;;
53650;SDS011;39552;45.776;15.892;2022-08-05T01:18:49;10.93;;;5.28;;
53650;SDS011;39552;45.776;15.892;2022-08-05T01:21:27;13.48;;;5.07;;
53650;SDS011;39552;45.776;15.892;2022-08-05T01:24:21;16.83;;;6.25;;
53650;SDS011;39552;45.776;15.892;2022-08-05T01:26:59;14.82;;;6.55;;
53650;SDS011;39552;45.776;15.892;2022-08-05T01:29:47;14.48;;;6.45;;
53650;SDS011;39552;45.776;15.892;2022-08-05T01:32:20;9.70;;;5.63;;
53650;SDS011;39552;45.776;15.892;2022-08-05T01:34:53;10.85;;;5.78;;
53650;SDS011;39552;45.776;15.892;2022-08-05T01:37:24;13.65;;;6.13;;
53650;SDS011;39552;45.776;15.892;2022-08-05T01:40:02;9.93;;;6.03;;
53650;SDS011;39552;45.776;15.892;2022-08-05T01:42:32;14.48;;;5.35;;
53650;SDS011;39552;45.776;15.892;2022-08-05T01:45:04;6.75;;;4.63;;
53650;SDS011;39552;45.776;15.892;2022-08-05T01:47:33;5.15;;;4.00;;
53650;SDS011;39552;45.776;15.892;2022-08-05T01:50:05;5.57;;;3.58;;
53650;SDS011;39552;45.776;15.892;2022-08-05T01:52:41;7.10;;;3.70;;
53650;SDS011;39552;45.776;15.892;2022-08-05T01:55:09;5.15;;;3.55;;
53650;SDS011;39552;45.776;15.892;2022-08-05T01:57:40;8.25;;;4.00;;
53650;SDS011;39552;45.776;15.892;2022-08-05T02:00:31;7.18;;;3.63;;
53650;SDS011;39552;45.776;15.892;2022-08-05T02:03:00;8.02;;;3.70;;
53650;SDS011;39552;45.776;15.892;2022-08-05T02:05:49;5.45;;;3.95;;
53650;SDS011;39552;45.776;15.892;2022-08-05T02:08:25;6.38;;;4.10;;
53650;SDS011;39552;45.776;15.892;2022-08-05T02:10:58;5.47;;;3.80;;
53650;SDS011;39552;45.776;15.892;2022-08-05T02:13:32;11.68;;;4.78;;
53650;SDS011;39552;45.776;15.892;2022-08-05T02:16:21;8.00;;;4.22;;
53650;SDS011;39552;45.776;15.892;2022-08-05T02:18:53;5.85;;;4.10;;
53650;SDS011;39552;45.776;15.892;2022-08-05T02:21:24;6.55;;;4.30;;
53650;SDS011;39552;45.776;15.892;2022-08-05T02:24:10;9.15;;;4.78;;
53650;SDS011;39552;45.776;15.892;2022-08-05T02:26:44;10.02;;;4.82;;
53650;SDS011;39552;45.776;15.892;2022-08-05T02:29:21;6.22;;;4.45;;
53650;SDS011;39552;45.776;15.892;2022-08-05T02:34:49;8.75;;;4.00;;
53650;SDS011;39552;45.776;15.892;2022-08-05T02:37:20;8.88;;;4.30;;
53650;SDS011;39552;45.776;15.892;2022-08-05T02:39:50;8.70;;;4.13;;
53650;SDS011;39552;45.776;15.892;2022-08-05T02:42:18;7.77;;;4.00;;
53650;SDS011;39552;45.776;15.892;2022-08-05T02:44:51;11.73;;;4.10;;
53650;SDS011;39552;45.776;15.892;2022-08-05T02:47:20;8.05;;;4.53;;
53650;SDS011;39552;45.776;15.892;2022-08-05T02:49:49;10.40;;;5.22;;
53650;SDS011;39552;45.776;15.892;2022-08-05T02:52:17;6.95;;;3.78;;
53650;SDS011;39552;45.776;15.892;2022-08-05T02:54:55;7.20;;;4.50;;
53650;SDS011;39552;45.776;15.892;2022-08-05T02:57:27;6.20;;;4.40;;
53650;SDS011;39552;45.776;15.892;2022-08-05T03:00:15;5.97;;;4.03;;
53650;SDS011;39552;45.776;15.892;2022-08-05T03:02:44;5.30;;;4.45;;
53650;SDS011;39552;45.776;15.892;2022-08-05T03:05:12;6.70;;;4.10;;
53650;SDS011;39552;45.776;15.892;2022-08-05T03:07:41;12.18;;;4.65;;
53650;SDS011;39552;45.776;15.892;2022-08-05T03:10:29;8.20;;;4.82;;
53650;SDS011;39552;45.776;15.892;2022-08-05T03:12:55;7.32;;;4.63;;
53650;SDS011;39552;45.776;15.892;2022-08-05T03:15:21;6.72;;;4.43;;
53650;SDS011;39552;45.776;15.892;2022-08-05T03:17:50;5.90;;;4.85;;
53650;SDS011;39552;45.776;15.892;2022-08-05T03:20:20;8.90;;;4.50;;
53650;SDS011;39552;45.776;15.892;2022-08-05T03:22:49;7.90;;;5.05;;
53650;SDS011;39552;45.776;15.892;2022-08-05T03:25:16;8.13;;;4.80;;
53650;SDS011;39552;45.776;15.892;2022-08-05T03:28:04;7.28;;;4.53;;
53650;SDS011;39552;45.776;15.892;2022-08-05T03:30:34;10.77;;;5.60;;
53650;SDS011;39552;45.776;15.892;2022-08-05T03:33:03;11.45;;;4.70;;
53650;SDS011;39552;45.776;15.892;2022-08-05T03:35:32;9.07;;;4.63;;
53650;SDS011;39552;45.776;15.892;2022-08-05T03:38:07;7.03;;;4.68;;
53650;SDS011;39552;45.776;15.892;2022-08-05T03:40:38;12.60;;;5.68;;
53650;SDS011;39552;45.776;15.892;2022-08-05T03:43:05;11.52;;;5.20;;
53650;SDS011;39552;45.776;15.892;2022-08-05T03:45:52;16.20;;;4.93;;
53650;SDS011;39552;45.776;15.892;2022-08-05T03:48:25;13.32;;;4.78;;
53650;SDS011;39552;45.776;15.892;2022-08-05T03:50:54;7.05;;;4.70;;
53650;SDS011;39552;45.776;15.892;2022-08-05T03:53:48;6.10;;;4.30;;
53650;SDS011;39552;45.776;15.892;2022-08-05T03:56:37;11.88;;;4.70;;
53650;SDS011;39552;45.776;15.892;2022-08-05T03:59:07;7.55;;;4.85;;
53650;SDS011;39552;45.776;15.892;2022-08-05T04:01:36;8.57;;;5.05;;
53650;SDS011;39552;45.776;15.892;2022-08-05T04:04:12;5.93;;;4.50;;
53650;SDS011;39552;45.776;15.892;2022-08-05T04:06:46;7.40;;;5.00;;
53650;SDS011;39552;45.776;15.892;2022-08-05T04:09:17;8.95;;;5.60;;
53650;SDS011;39552;45.776;15.892;2022-08-05T04:11:51;11.93;;;6.15;;
53650;SDS011;39552;45.776;15.892;2022-08-05T04:14:21;10.38;;;5.90;;
53650;SDS011;39552;45.776;15.892;2022-08-05T04:16:55;9.65;;;5.78;;
53650;SDS011;39552;45.776;15.892;2022-08-05T04:19:25;10.90;;;6.45;;
53650;SDS011;39552;45.776;15.892;2022-08-05T04:21:52;12.82;;;6.10;;
53650;SDS011;39552;45.776;15.892;2022-08-05T04:24:38;12.32;;;6.22;;
53650;SDS011;39552;45.776;15.892;2022-08-05T04:27:17;10.88;;;5.97;;
53650;SDS011;39552;45.776;15.892;2022-08-05T04:29:44;12.75;;;6.35;;
53650;SDS011;39552;45.776;15.892;2022-08-05T04:34:57;8.50;;;6.32;;
53650;SDS011;39552;45.776;15.892;2022-08-05T04:37:23;15.68;;;6.40;;
53650;SDS011;39552;45.776;15.892;2022-08-05T04:40:10;11.23;;;6.18;;
53650;SDS011;39552;45.776;15.892;2022-08-05T04:42:37;15.55;;;7.13;;
53650;SDS011;39552;45.776;15.892;2022-08-05T04:47:39;12.40;;;6.03;;
53650;SDS011;39552;45.776;15.892;2022-08-05T04:50:13;12.77;;;6.40;;
53650;SDS011;39552;45.776;15.892;2022-08-05T04:53:00;12.13;;;5.93;;
53650;SDS011;39552;45.776;15.892;2022-08-05T04:55:27;14.27;;;6.53;;
53650;SDS011;39552;45.776;15.892;2022-08-05T04:58:15;15.65;;;6.10;;
53650;SDS011;39552;45.776;15.892;2022-08-05T05:00:46;18.52;;;6.43;;
53650;SDS011;39552;45.776;15.892;2022-08-05T05:03:16;9.05;;;5.93;;
53650;SDS011;39552;45.776;15.892;2022-08-05T05:05:47;9.18;;;6.05;;
53650;SDS011;39552;45.776;15.892;2022-08-05T05:08:35;15.55;;;6.18;;
53650;SDS011;39552;45.776;15.892;2022-08-05T05:11:08;13.93;;;6.07;;
53650;SDS011;39552;45.776;15.892;2022-08-05T05:13:40;9.15;;;6.40;;
53650;SDS011;39552;45.776;15.892;2022-08-05T05:16:08;11.82;;;6.35;;
53650;SDS011;39552;45.776;15.892;2022-08-05T05:18:36;15.05;;;6.78;;
53650;SDS011;39552;45.776;15.892;2022-08-05T05:21:04;12.45;;;6.95;;
53650;SDS011;39552;45.776;15.892;2022-08-05T05:23:31;8.73;;;6.10;;
53650;SDS011;39552;45.776;15.892;2022-08-05T05:26:18;13.60;;;6.03;;
53650;SDS011;39552;45.776;15.892;2022-08-05T05:28:54;13.77;;;6.53;;
53650;SDS011;39552;45.776;15.892;2022-08-05T05:31:22;9.98;;;5.75;;
53650;SDS011;39552;45.776;15.892;2022-08-05T05:33:50;12.45;;;6.32;;
53650;SDS011;39552;45.776;15.892;2022-08-05T05:36:28;16.98;;;6.45;;
53650;SDS011;39552;45.776;15.892;2022-08-05T05:38:56;11.20;;;5.10;;
53650;SDS011;39552;45.776;15.892;2022-08-05T05:41:24;8.50;;;5.88;;
53650;SDS011;39552;45.776;15.892;2022-08-05T05:44:06;8.13;;;6.03;;
53650;SDS011;39552;45.776;15.892;2022-08-05T05:46:52;10.40;;;5.70;;
53650;SDS011;39552;45.776;15.892;2022-08-05T05:49:21;11.18;;;5.68;;
53650;SDS011;39552;45.776;15.892;2022-08-05T05:51:50;11.25;;;5.93;;
53650;SDS011;39552;45.776;15.892;2022-08-05T05:54:18;11.73;;;5.57;;
53650;SDS011;39552;45.776;15.892;2022-08-05T05:56:45;9.05;;;5.32;;
53650;SDS011;39552;45.776;15.892;2022-08-05T05:59:12;9.07;;;4.93;;
53650;SDS011;39552;45.776;15.892;2022-08-05T06:01:39;6.05;;;4.75;;
53650;SDS011;39552;45.776;15.892;2022-08-05T06:04:23;8.55;;;4.85;;
53650;SDS011;39552;45.776;15.892;2022-08-05T06:06:51;5.60;;;4.65;;
53650;SDS011;39552;45.776;15.892;2022-08-05T06:09:18;8.60;;;5.15;;
53650;SDS011;39552;45.776;15.892;2022-08-05T06:12:05;9.32;;;4.57;;
53650;SDS011;39552;45.776;15.892;2022-08-05T06:14:35;6.55;;;4.75;;
53650;SDS011;39552;45.776;15.892;2022-08-05T06:17:05;5.85;;;5.15;;
53650;SDS011;39552;45.776;15.892;2022-08-05T06:19:49;6.85;;;4.55;;
53650;SDS011;39552;45.776;15.892;2022-08-05T06:22:26;7.72;;;5.05;;
53650;SDS011;39552;45.776;15.892;2022-08-05T06:27:20;8.35;;;4.78;;
53650;SDS011;39552;45.776;15.892;2022-08-05T06:30:07;6.03;;;4.90;;
53650;SDS011;39552;45.776;15.892;2022-08-05T06:32:46;4.63;;;4.10;;
53650;SDS011;39552;45.776;15.892;2022-08-05T06:35:15;5.10;;;4.32;;
53650;SDS011;39552;45.776;15.892;2022-08-05T06:38:04;5.53;;;4.35;;
53650;SDS011;39552;45.776;15.892;2022-08-05T06:40:36;8.45;;;4.38;;
53650;SDS011;39552;45.776;15.892;2022-08-05T06:43:09;6.95;;;4.25;;
53650;SDS011;39552;45.776;15.892;2022-08-05T06:45:56;11.82;;;4.10;;
53650;SDS011;39552;45.776;15.892;2022-08-05T06:48:32;4.95;;;4.10;;
53650;SDS011;39552;45.776;15.892;2022-08-05T06:51:19;11.35;;;3.90;;
53650;SDS011;39552;45.776;15.892;2022-08-05T06:53:54;5.95;;;3.85;;
53650;SDS011;39552;45.776;15.892;2022-08-05T06:56:22;7.63;;;4.07;;
53650;SDS011;39552;45.776;15.892;2022-08-05T06:58:52;6.10;;;4.10;;
53650;SDS011;39552;45.776;15.892;2022-08-05T07:01:18;6.72;;;4.20;;
53650;SDS011;39552;45.776;15.892;2022-08-05T07:03:47;12.10;;;4.40;;
53650;SDS011;39552;45.776;15.892;2022-08-05T07:06:14;11.20;;;4.15;;
53650;SDS011;39552;45.776;15.892;2022-08-05T07:08:44;4.93;;;3.80;;
53650;SDS011;39552;45.776;15.892;2022-08-05T07:11:18;8.73;;;4.30;;
53650;SDS011;39552;45.776;15.892;2022-08-05T07:13:48;4.93;;;3.95;;
53650;SDS011;39552;45.776;15.892;2022-08-05T07:16:25;5.18;;;3.63;;
53650;SDS011;39552;45.776;15.892;2022-08-05T07:19:12;9.02;;;4.22;;
53650;SDS011;39552;45.776;15.892;2022-08-05T07:21:58;6.45;;;4.00;;
53650;SDS011;39552;45.776;15.892;2022-08-05T07:24:27;8.55;;;4.32;;
53650;SDS011;39552;45.776;15.892;2022-08-05T07:26:56;6.65;;;3.67;;
53650;SDS011;39552;45.776;15.892;2022-08-05T07:32:10;6.45;;;3.55;;
53650;SDS011;39552;45.776;15.892;2022-08-05T07:37:07;5.05;;;3.60;;
53650;SDS011;39552;45.776;15.892;2022-08-05T07:39:46;3.80;;;3.13;;
53650;SDS011;39552;45.776;15.892;2022-08-05T07:42:34;3.30;;;3.00;;
53650;SDS011;39552;45.776;15.892;2022-08-05T07:45:01;8.70;;;3.10;;
53650;SDS011;39552;45.776;15.892;2022-08-05T07:47:34;8.30;;;3.28;;
53650;SDS011;39552;45.776;15.892;2022-08-05T07:50:08;4.53;;;3.40;;
53650;SDS011;39552;45.776;15.892;2022-08-05T07:52:36;5.05;;;3.17;;
53650;SDS011;39552;45.776;15.892;2022-08-05T07:55:05;9.05;;;3.55;;
53650;SDS011;39552;45.776;15.892;2022-08-05T07:57:53;5.18;;;3.25;;
53650;SDS011;39552;45.776;15.892;2022-08-05T08:00:28;3.78;;;2.90;;
53650;SDS011;39552;45.776;15.892;2022-08-05T08:02:54;3.60;;;3.25;;
53650;SDS011;39552;45.776;15.892;2022-08-05T08:05:41;4.35;;;3.35;;
53650;SDS011;39552;45.776;15.892;2022-08-05T08:08:15;5.00;;;2.60;;
53650;SDS011;39552;45.776;15.892;2022-08-05T08:10:45;6.15;;;3.30;;
53650;SDS011;39552;45.776;15.892;2022-08-05T08:13:15;6.00;;;2.83;;
53650;SDS011;39552;45.776;15.892;2022-08-05T08:15:54;6.75;;;3.05;;
53650;SDS011;39552;45.776;15.892;2022-08-05T08:18:40;10.48;;;3.95;;
53650;SDS011;39552;45.776;15.892;2022-08-05T08:21:15;7.68;;;3.63;;
53650;SDS011;39552;45.776;15.892;2022-08-05T08:23:43;12.75;;;3.85;;
53650;SDS011;39552;45.776;15.892;2022-08-05T08:26:29;8.23;;;3.63;;
53650;SDS011;39552;45.776;15.892;2022-08-05T08:28:58;3.80;;;3.20;;
53650;SDS011;39552;45.776;15.892;2022-08-05T08:31:45;2.80;;;2.60;;
53650;SDS011;39552;45.776;15.892;2022-08-05T08:34:13;3.00;;;2.70;;
53650;SDS011;39552;45.776;15.892;2022-08-05T08:36:43;9.40;;;3.58;;
53650;SDS011;39552;45.776;15.892;2022-08-05T08:39:17;4.55;;;3.10;;
53650;SDS011;39552;45.776;15.892;2022-08-05T08:41:46;5.00;;;2.50;;
53650;SDS011;39552;45.776;15.892;2022-08-05T08:44:29;3.95;;;2.92;;
53650;SDS011;39552;45.776;15.892;2022-08-05T08:47:17;3.35;;;2.40;;
53650;SDS011;39552;45.776;15.892;2022-08-05T08:50:08;2.92;;;2.70;;
53650;SDS011;39552;45.776;15.892;2022-08-05T08:52:58;10.00;;;3.08;;
53650;SDS011;39552;45.776;15.892;2022-08-05T08:55:37;3.05;;;2.50;;
53650;SDS011;39552;45.776;15.892;2022-08-05T08:58:25;7.57;;;2.70;;
53650;SDS011;39552;45.776;15.892;2022-08-05T09:01:13;5.60;;;2.20;;
53650;SDS011;39552;45.776;15.892;2022-08-05T09:03:43;5.60;;;2.13;;
53650;SDS011;39552;45.776;15.892;2022-08-05T09:06:11;2.28;;;2.17;;
53650;SDS011;39552;45.776;15.892;2022-08-05T09:08:45;5.22;;;1.77;;
53650;SDS011;39552;45.776;15.892;2022-08-05T09:11:12;2.25;;;1.98;;
53650;SDS011;39552;45.776;15.892;2022-08-05T09:13:40;2.42;;;1.95;;
53650;SDS011;39552;45.776;15.892;2022-08-05T09:16:28;3.50;;;2.10;;
53650;SDS011;39552;45.776;15.892;2022-08-05T09:18:55;2.03;;;1.90;;
53650;SDS011;39552;45.776;15.892;2022-08-05T09:21:24;2.45;;;2.25;;
53650;SDS011;39552;45.776;15.892;2022-08-05T09:24:11;3.47;;;2.00;;
53650;SDS011;39552;45.776;15.892;2022-08-05T09:29:09;1.90;;;1.80;;
53650;SDS011;39552;45.776;15.892;2022-08-05T09:31:45;3.20;;;2.03;;
53650;SDS011;39552;45.776;15.892;2022-08-05T09:34:47;2.38;;;2.05;;
53650;SDS011;39552;45.776;15.892;2022-08-05T09:37:16;2.17;;;1.98;;
53650;SDS011;39552;45.776;15.892;2022-08-05T09:40:03;3.85;;;1.92;;
53650;SDS011;39552;45.776;15.892;2022-08-05T09:42:38;2.38;;;1.95;;
53650;SDS011;39552;45.776;15.892;2022-08-05T09:45:06;2.17;;;1.83;;
53650;SDS011;39552;45.776;15.892;2022-08-05T09:47:55;1.80;;;1.70;;
53650;SDS011;39552;45.776;15.892;2022-08-05T09:50:32;3.85;;;2.00;;
53650;SDS011;39552;45.776;15.892;2022-08-05T09:53:08;2.97;;;1.77;;
53650;SDS011;39552;45.776;15.892;2022-08-05T09:58:29;1.80;;;1.70;;
53650;SDS011;39552;45.776;15.892;2022-08-05T10:00:57;2.05;;;1.60;;
53650;SDS011;39552;45.776;15.892;2022-08-05T10:03:27;1.70;;;1.60;;
53650;SDS011;39552;45.776;15.892;2022-08-05T10:06:14;2.20;;;1.80;;
53650;SDS011;39552;45.776;15.892;2022-08-05T10:08:45;3.85;;;1.63;;
53650;SDS011;39552;45.776;15.892;2022-08-05T10:11:19;1.80;;;1.70;;
53650;SDS011;39552;45.776;15.892;2022-08-05T10:13:46;4.95;;;2.10;;
53650;SDS011;39552;45.776;15.892;2022-08-05T10:16:27;1.70;;;1.60;;
53650;SDS011;39552;45.776;15.892;2022-08-05T10:18:58;3.20;;;1.55;;
53650;SDS011;39552;45.776;15.892;2022-08-05T10:21:26;1.80;;;1.70;;
53650;SDS011;39552;45.776;15.892;2022-08-05T10:26:36;2.20;;;1.50;;
53650;SDS011;39552;45.776;15.892;2022-08-05T10:29:17;2.65;;;1.73;;
53650;SDS011;39552;45.776;15.892;2022-08-05T10:32:05;4.07;;;2.08;;
53650;SDS011;39552;45.776;15.892;2022-08-05T10:34:54;3.00;;;1.90;;
53650;SDS011;39552;45.776;15.892;2022-08-05T10:37:26;4.10;;;1.90;;
53650;SDS011;39552;45.776;15.892;2022-08-05T10:40:13;1.67;;;1.58;;
53650;SDS011;39552;45.776;15.892;2022-08-05T10:42:45;4.53;;;2.00;;
53650;SDS011;39552;45.776;15.892;2022-08-05T10:45:15;2.10;;;1.80;;
53650;SDS011;39552;45.776;15.892;2022-08-05T10:51:20;1.73;;;1.63;;
53650;SDS011;39552;45.776;15.892;2022-08-05T10:53:55;1.80;;;1.70;;
53650;SDS011;39552;45.776;15.892;2022-08-05T10:56:26;1.40;;;1.40;;
53650;SDS011;39552;45.776;15.892;2022-08-05T11:01:38;1.50;;;1.40;;
53650;SDS011;39552;45.776;15.892;2022-08-05T11:04:26;1.73;;;1.63;;
53650;SDS011;39552;45.776;15.892;2022-08-05T11:07:04;2.35;;;1.50;;
53650;SDS011;39552;45.776;15.892;2022-08-05T11:12:45;1.67;;;1.58;;
53650;SDS011;39552;45.776;15.892;2022-08-05T11:15:21;1.40;;;1.40;;
53650;SDS011;39552;45.776;15.892;2022-08-05T11:18:21;1.65;;;1.55;;
53650;SDS011;39552;45.776;15.892;2022-08-05T11:20:51;1.70;;;1.60;;
53650;SDS011;39552;45.776;15.892;2022-08-05T11:23:27;3.72;;;1.80;;
53650;SDS011;39552;45.776;15.892;2022-08-05T11:26:19;4.00;;;1.75;;
53650;SDS011;39552;45.776;15.892;2022-08-05T11:28:58;4.38;;;1.40;;
53650;SDS011;39552;45.776;15.892;2022-08-05T11:31:39;6.15;;;1.70;;
53650;SDS011;39552;45.776;15.892;2022-08-05T11:34:35;1.75;;;1.65;;
53650;SDS011;39552;45.776;15.892;2022-08-05T11:37:04;2.38;;;1.85;;
53650;SDS011;39552;45.776;15.892;2022-08-05T11:39:52;1.40;;;1.40;;
53650;SDS011;39552;45.776;15.892;2022-08-05T11:42:29;4.27;;;1.50;;
53650;SDS011;39552;45.776;15.892;2022-08-05T11:44:59;2.63;;;1.75;;
53650;SDS011;39552;45.776;15.892;2022-08-05T11:47:29;1.63;;;1.52;;
53650;SDS011;39552;45.776;15.892;2022-08-05T11:50:15;3.15;;;1.60;;
53650;SDS011;39552;45.776;15.892;2022-08-05T11:52:42;3.05;;;1.42;;
53650;SDS011;39552;45.776;15.892;2022-08-05T11:55:16;1.60;;;1.50;;
53650;SDS011;39552;45.776;15.892;2022-08-05T11:57:44;4.73;;;1.60;;
53650;SDS011;39552;45.776;15.892;2022-08-05T12:00:31;8.23;;;1.40;;
53650;SDS011;39552;45.776;15.892;2022-08-05T12:03:17;1.60;;;1.50;;
53650;SDS011;39552;45.776;15.892;2022-08-05T12:05:57;2.53;;;1.40;;
53650;SDS011;39552;45.776;15.892;2022-08-05T12:08:31;1.50;;;1.50;;
53650;SDS011;39552;45.776;15.892;2022-08-05T12:10:59;1.63;;;1.52;;
53650;SDS011;39552;45.776;15.892;2022-08-05T12:13:31;3.08;;;1.88;;
53650;SDS011;39552;45.776;15.892;2022-08-05T12:16:16;1.63;;;1.50;;
53650;SDS011;39552;45.776;15.892;2022-08-05T12:18:44;2.75;;;1.60;;
53650;SDS011;39552;45.776;15.892;2022-08-05T12:21:18;3.25;;;1.50;;
53650;SDS011;39552;45.776;15.892;2022-08-05T12:23:52;5.15;;;1.80;;
53650;SDS011;39552;45.776;15.892;2022-08-05T12:26:32;1.65;;;1.42;;
53650;SDS011;39552;45.776;15.892;2022-08-05T12:29:00;1.70;;;1.60;;
53650;SDS011;39552;45.776;15.892;2022-08-05T12:31:30;3.00;;;1.70;;
53650;SDS011;39552;45.776;15.892;2022-08-05T12:34:10;2.15;;;1.52;;
53650;SDS011;39552;45.776;15.892;2022-08-05T12:36:45;6.95;;;1.30;;
53650;SDS011;39552;45.776;15.892;2022-08-05T12:39:13;1.40;;;1.40;;
53650;SDS011;39552;45.776;15.892;2022-08-05T12:41:41;3.47;;;1.42;;
53650;SDS011;39552;45.776;15.892;2022-08-05T12:44:09;1.70;;;1.60;;
53650;SDS011;39552;45.776;15.892;2022-08-05T12:46:40;1.70;;;1.60;;
53650;SDS011;39552;45.776;15.892;2022-08-05T12:49:11;2.70;;;1.70;;
53650;SDS011;39552;45.776;15.892;2022-08-05T12:51:43;1.70;;;1.60;;
53650;SDS011;39552;45.776;15.892;2022-08-05T12:54:31;2.17;;;1.60;;
53650;SDS011;39552;45.776;15.892;2022-08-05T12:57:00;2.63;;;1.50;;
53650;SDS011;39552;45.776;15.892;2022-08-05T12:59:29;2.75;;;1.63;;
53650;SDS011;39552;45.776;15.892;2022-08-05T13:02:18;2.08;;;1.77;;
53650;SDS011;39552;45.776;15.892;2022-08-05T13:05:04;1.40;;;1.30;;
53650;SDS011;39552;45.776;15.892;2022-08-05T13:07:31;1.40;;;1.40;;
53650;SDS011;39552;45.776;15.892;2022-08-05T13:10:18;1.80;;;1.30;;
53650;SDS011;39552;45.776;15.892;2022-08-05T13:12:47;1.50;;;1.40;;
53650;SDS011;39552;45.776;15.892;2022-08-05T13:15:27;2.28;;;1.67;;
53650;SDS011;39552;45.776;15.892;2022-08-05T13:18:14;2.97;;;1.65;;
53650;SDS011;39552;45.776;15.892;2022-08-05T13:20:46;1.95;;;1.58;;
53650;SDS011;39552;45.776;15.892;2022-08-05T13:23:15;3.03;;;1.67;;
53650;SDS011;39552;45.776;15.892;2022-08-05T13:25:48;1.50;;;1.40;;
53650;SDS011;39552;45.776;15.892;2022-08-05T13:28:28;2.35;;;1.50;;
53650;SDS011;39552;45.776;15.892;2022-08-05T13:30:58;1.67;;;1.55;;
53650;SDS011;39552;45.776;15.892;2022-08-05T13:33:42;2.70;;;1.50;;
53650;SDS011;39552;45.776;15.892;2022-08-05T13:36:29;2.08;;;1.42;;
53650;SDS011;39552;45.776;15.892;2022-08-05T13:38:57;1.50;;;1.40;;
53650;SDS011;39552;45.776;15.892;2022-08-05T13:41:25;1.58;;;1.48;;
53650;SDS011;39552;45.776;15.892;2022-08-05T13:44:05;1.70;;;1.60;;
53650;SDS011;39552;45.776;15.892;2022-08-05T13:46:35;1.85;;;1.50;;
53650;SDS011;39552;45.776;15.892;2022-08-05T13:49:16;1.38;;;1.33;;
53650;SDS011;39552;45.776;15.892;2022-08-05T13:51:43;1.50;;;1.40;;
53650;SDS011;39552;45.776;15.892;2022-08-05T13:54:11;2.72;;;1.40;;
53650;SDS011;39552;45.776;15.892;2022-08-05T13:59:52;1.40;;;1.30;;
53650;SDS011;39552;45.776;15.892;2022-08-05T14:02:27;2.20;;;1.50;;
53650;SDS011;39552;45.776;15.892;2022-08-05T14:04:56;1.95;;;1.30;;
53650;SDS011;39552;45.776;15.892;2022-08-05T14:07:27;1.95;;;1.30;;
53650;SDS011;39552;45.776;15.892;2022-08-05T14:10:17;4.15;;;1.50;;
53650;SDS011;39552;45.776;15.892;2022-08-05T14:15:24;2.78;;;1.50;;
53650;SDS011;39552;45.776;15.892;2022-08-05T14:18:12;1.30;;;1.30;;
53650;SDS011;39552;45.776;15.892;2022-08-05T14:20:49;1.98;;;1.55;;
53650;SDS011;39552;45.776;15.892;2022-08-05T14:23:21;2.35;;;1.40;;
53650;SDS011;39552;45.776;15.892;2022-08-05T14:25:52;7.53;;;1.65;;
53650;SDS011;39552;45.776;15.892;2022-08-05T14:28:24;1.95;;;1.60;;
53650;SDS011;39552;45.776;15.892;2022-08-05T14:30:54;1.60;;;1.40;;
53650;SDS011;39552;45.776;15.892;2022-08-05T14:33:22;2.40;;;1.48;;
53650;SDS011;39552;45.776;15.892;2022-08-05T14:35:50;4.22;;;1.45;;
53650;SDS011;39552;45.776;15.892;2022-08-05T14:38:21;2.45;;;1.38;;
53650;SDS011;39552;45.776;15.892;2022-08-05T14:41:00;1.50;;;1.40;;
53650;SDS011;39552;45.776;15.892;2022-08-05T14:43:31;1.60;;;1.50;;
53650;SDS011;39552;45.776;15.892;2022-08-05T14:46:21;1.50;;;1.40;;
53650;SDS011;39552;45.776;15.892;2022-08-05T14:48:55;1.40;;;1.30;;
53650;SDS011;39552;45.776;15.892;2022-08-05T14:51:22;1.35;;;1.25;;
53650;SDS011;39552;45.776;15.892;2022-08-05T14:53:52;3.42;;;1.30;;
53650;SDS011;39552;45.776;15.892;2022-08-05T14:59:18;2.88;;;1.40;;
53650;SDS011;39552;45.776;15.892;2022-08-05T15:04:30;1.55;;;1.33;;
53650;SDS011;39552;45.776;15.892;2022-08-05T15:07:04;1.30;;;1.30;;
53650;SDS011;39552;45.776;15.892;2022-08-05T15:09:32;5.97;;;1.48;;
53650;SDS011;39552;45.776;15.892;2022-08-05T15:12:18;3.80;;;1.40;;
53650;SDS011;39552;45.776;15.892;2022-08-05T15:14:45;1.60;;;1.50;;
53650;SDS011;39552;45.776;15.892;2022-08-05T15:20:08;1.45;;;1.30;;
53650;SDS011;39552;45.776;15.892;2022-08-05T15:22:45;2.80;;;1.23;;
53650;SDS011;39552;45.776;15.892;2022-08-05T15:25:19;4.10;;;1.60;;
53650;SDS011;39552;45.776;15.892;2022-08-05T15:28:09;1.23;;;1.20;;
53650;SDS011;39552;45.776;15.892;2022-08-05T15:30:40;2.38;;;1.38;;
53650;SDS011;39552;45.776;15.892;2022-08-05T15:33:10;2.78;;;1.70;;
53650;SDS011;39552;45.776;15.892;2022-08-05T15:35:37;2.17;;;1.30;;
53650;SDS011;39552;45.776;15.892;2022-08-05T15:38:11;1.63;;;1.38;;
53650;SDS011;39552;45.776;15.892;2022-08-05T15:40:58;2.17;;;1.48;;
53650;SDS011;39552;45.776;15.892;2022-08-05T15:43:45;1.38;;;1.17;;
53650;SDS011;39552;45.776;15.892;2022-08-05T15:46:13;5.20;;;1.30;;
53650;SDS011;39552;45.776;15.892;2022-08-05T15:48:42;1.30;;;1.30;;
53650;SDS011;39552;45.776;15.892;2022-08-05T15:51:24;2.22;;;1.48;;
53650;SDS011;39552;45.776;15.892;2022-08-05T15:54:11;2.75;;;1.30;;
53650;SDS011;39552;45.776;15.892;2022-08-05T15:56:40;3.95;;;1.30;;
53650;SDS011;39552;45.776;15.892;2022-08-05T15:59:09;1.88;;;1.30;;
53650;SDS011;39552;45.776;15.892;2022-08-05T16:01:48;1.60;;;1.50;;
53650;SDS011;39552;45.776;15.892;2022-08-05T16:04:20;1.40;;;1.30;;
53650;SDS011;39552;45.776;15.892;2022-08-05T16:06:51;1.25;;;1.23;;